sensor_id;sensor_type;location;lat;lon;timestamp;temperature;humidity
66928;DHT22;59882;45.624;11.698;2023-04-03T00:02:07;14.80;58.70
66928;DHT22;59882;45.624;11.698;2023-04-03T00:04:33;14.80;58.60
66928;DHT22;59882;45.624;11.698;2023-04-03T00:06:58;14.80;59.10
66928;DHT22;59882;45.624;11.698;2023-04-03T00:09:24;14.80;58.70
66928;DHT22;59882;45.624;11.698;2023-04-03T00:11:49;14.80;59.00
66928;DHT22;59882;45.624;11.698;2023-04-03T00:14:15;14.80;58.80
66928;DHT22;59882;45.624;11.698;2023-04-03T00:16:41;14.80;58.30
66928;DHT22;59882;45.624;11.698;2023-04-03T00:19:06;14.70;58.70
66928;DHT22;59882;45.624;11.698;2023-04-03T00:21:32;14.70;58.20
66928;DHT22;59882;45.624;11.698;2023-04-03T00:23:58;14.60;58.90
66928;DHT22;59882;45.624;11.698;2023-04-03T00:26:23;14.60;58.20
66928;DHT22;59882;45.624;11.698;2023-04-03T00:28:49;14.60;58.90
66928;DHT22;59882;45.624;11.698;2023-04-03T00:31:15;14.60;58.40
66928;DHT22;59882;45.624;11.698;2023-04-03T00:33:41;14.60;58.00
66928;DHT22;59882;45.624;11.698;2023-04-03T00:36:09;14.60;57.90
66928;DHT22;59882;45.624;11.698;2023-04-03T00:38:35;14.60;58.10
66928;DHT22;59882;45.624;11.698;2023-04-03T00:41:01;14.60;57.80
66928;DHT22;59882;45.624;11.698;2023-04-03T00:43:27;14.60;57.80
66928;DHT22;59882;45.624;11.698;2023-04-03T00:45:57;14.60;57.60
66928;DHT22;59882;45.624;11.698;2023-04-03T00:48:28;14.60;57.70
66928;DHT22;59882;45.624;11.698;2023-04-03T00:50:54;14.50;57.60
66928;DHT22;59882;45.624;11.698;2023-04-03T00:53:27;14.50;57.50
66928;DHT22;59882;45.624;11.698;2023-04-03T00:55:56;14.50;57.40
66928;DHT22;59882;45.624;11.698;2023-04-03T00:59:09;14.50;57.50
66928;DHT22;59882;45.624;11.698;2023-04-03T01:01:16;14.50;57.50
66928;DHT22;59882;45.624;11.698;2023-04-03T01:03:44;14.40;57.30
66928;DHT22;59882;45.624;11.698;2023-04-03T01:06:09;14.50;57.50
66928;DHT22;59882;45.624;11.698;2023-04-03T01:08:35;14.40;57.50
66928;DHT22;59882;45.624;11.698;2023-04-03T01:11:01;14.40;57.40
66928;DHT22;59882;45.624;11.698;2023-04-03T01:13:32;14.40;57.40
66928;DHT22;59882;45.624;11.698;2023-04-03T01:16:01;14.40;57.70
66928;DHT22;59882;45.624;11.698;2023-04-03T01:18:29;14.40;58.20
66928;DHT22;59882;45.624;11.698;2023-04-03T01:26:45;14.20;58.20
66928;DHT22;59882;45.624;11.698;2023-04-03T01:29:11;14.10;58.90
66928;DHT22;59882;45.624;11.698;2023-04-03T01:31:53;14.10;58.60
66928;DHT22;59882;45.624;11.698;2023-04-03T01:34:19;14.00;57.90
66928;DHT22;59882;45.624;11.698;2023-04-03T01:36:45;13.90;57.60
66928;DHT22;59882;45.624;11.698;2023-04-03T01:39:11;13.70;57.80
66928;DHT22;59882;45.624;11.698;2023-04-03T01:41:37;13.60;58.20
66928;DHT22;59882;45.624;11.698;2023-04-03T01:44:03;13.40;58.30
66928;DHT22;59882;45.624;11.698;2023-04-03T01:46:29;13.30;58.30
66928;DHT22;59882;45.624;11.698;2023-04-03T01:48:55;13.30;58.70
66928;DHT22;59882;45.624;11.698;2023-04-03T01:51:21;13.30;59.40
66928;DHT22;59882;45.624;11.698;2023-04-03T01:53:47;13.20;59.40
66928;DHT22;59882;45.624;11.698;2023-04-03T01:56:12;13.10;59.30
66928;DHT22;59882;45.624;11.698;2023-04-03T01:58:38;13.10;60.30
66928;DHT22;59882;45.624;11.698;2023-04-03T02:01:04;12.90;60.20
66928;DHT22;59882;45.624;11.698;2023-04-03T02:03:30;12.90;60.30
66928;DHT22;59882;45.624;11.698;2023-04-03T02:05:56;12.80;60.40
66928;DHT22;59882;45.624;11.698;2023-04-03T02:08:22;12.70;60.40
66928;DHT22;59882;45.624;11.698;2023-04-03T02:10:48;12.60;61.00
66928;DHT22;59882;45.624;11.698;2023-04-03T02:13:15;12.60;61.00
66928;DHT22;59882;45.624;11.698;2023-04-03T02:15:40;12.50;61.20
66928;DHT22;59882;45.624;11.698;2023-04-03T02:18:07;12.50;60.60
66928;DHT22;59882;45.624;11.698;2023-04-03T02:20:32;12.50;61.00
66928;DHT22;59882;45.624;11.698;2023-04-03T02:22:59;12.50;61.70
66928;DHT22;59882;45.624;11.698;2023-04-03T02:25:24;12.50;61.90
66928;DHT22;59882;45.624;11.698;2023-04-03T02:27:50;12.50;62.00
66928;DHT22;59882;45.624;11.698;2023-04-03T02:30:15;12.40;61.20
66928;DHT22;59882;45.624;11.698;2023-04-03T02:32:42;12.40;62.10
66928;DHT22;59882;45.624;11.698;2023-04-03T02:35:09;12.40;61.00
66928;DHT22;59882;45.624;11.698;2023-04-03T02:37:34;12.50;60.80
66928;DHT22;59882;45.624;11.698;2023-04-03T02:40:00;12.60;60.80
66928;DHT22;59882;45.624;11.698;2023-04-03T02:42:26;12.60;61.10
66928;DHT22;59882;45.624;11.698;2023-04-03T02:44:51;12.60;60.60
66928;DHT22;59882;45.624;11.698;2023-04-03T02:47:17;12.60;60.80
66928;DHT22;59882;45.624;11.698;2023-04-03T02:49:43;12.60;60.80
66928;DHT22;59882;45.624;11.698;2023-04-03T02:52:12;12.60;61.00
66928;DHT22;59882;45.624;11.698;2023-04-03T02:54:38;12.60;60.40
66928;DHT22;59882;45.624;11.698;2023-04-03T02:57:04;12.60;60.60
66928;DHT22;59882;45.624;11.698;2023-04-03T02:59:29;12.60;60.40
66928;DHT22;59882;45.624;11.698;2023-04-03T03:01:55;12.60;60.30
66928;DHT22;59882;45.624;11.698;2023-04-03T03:04:21;12.60;60.30
66928;DHT22;59882;45.624;11.698;2023-04-03T03:06:47;12.60;60.40
66928;DHT22;59882;45.624;11.698;2023-04-03T03:09:13;12.70;60.00
66928;DHT22;59882;45.624;11.698;2023-04-03T03:11:39;12.60;60.10
66928;DHT22;59882;45.624;11.698;2023-04-03T03:14:04;12.60;60.10
66928;DHT22;59882;45.624;11.698;2023-04-03T03:16:30;12.70;59.90
66928;DHT22;59882;45.624;11.698;2023-04-03T03:18:56;12.70;60.40
66928;DHT22;59882;45.624;11.698;2023-04-03T03:21:22;12.70;59.90
66928;DHT22;59882;45.624;11.698;2023-04-03T03:23:48;12.80;60.40
66928;DHT22;59882;45.624;11.698;2023-04-03T03:26:13;12.80;60.00
66928;DHT22;59882;45.624;11.698;2023-04-03T03:28:39;12.90;59.80
66928;DHT22;59882;45.624;11.698;2023-04-03T03:31:06;12.90;59.80
66928;DHT22;59882;45.624;11.698;2023-04-03T03:33:31;12.90;59.90
66928;DHT22;59882;45.624;11.698;2023-04-03T03:35:57;13.00;60.20
66928;DHT22;59882;45.624;11.698;2023-04-03T03:38:23;12.90;59.20
66928;DHT22;59882;45.624;11.698;2023-04-03T03:40:50;12.80;59.20
66928;DHT22;59882;45.624;11.698;2023-04-03T03:43:16;12.70;59.10
66928;DHT22;59882;45.624;11.698;2023-04-03T03:45:42;12.60;59.00
66928;DHT22;59882;45.624;11.698;2023-04-03T03:48:08;12.50;58.90
66928;DHT22;59882;45.624;11.698;2023-04-03T03:50:34;12.40;58.90
66928;DHT22;59882;45.624;11.698;2023-04-03T03:53:00;12.30;59.00
66928;DHT22;59882;45.624;11.698;2023-04-03T03:55:25;12.20;59.10
66928;DHT22;59882;45.624;11.698;2023-04-03T03:57:51;12.10;59.30
66928;DHT22;59882;45.624;11.698;2023-04-03T04:00:17;12.00;59.20
66928;DHT22;59882;45.624;11.698;2023-04-03T04:02:43;12.00;59.10
66928;DHT22;59882;45.624;11.698;2023-04-03T04:05:09;12.00;59.30
66928;DHT22;59882;45.624;11.698;2023-04-03T04:07:34;11.90;58.90
66928;DHT22;59882;45.624;11.698;2023-04-03T04:10:00;11.90;58.70
66928;DHT22;59882;45.624;11.698;2023-04-03T04:12:26;11.80;58.70
66928;DHT22;59882;45.624;11.698;2023-04-03T04:14:51;11.70;58.80
66928;DHT22;59882;45.624;11.698;2023-04-03T04:17:17;11.60;58.80
66928;DHT22;59882;45.624;11.698;2023-04-03T04:19:43;11.40;59.00
66928;DHT22;59882;45.624;11.698;2023-04-03T04:22:08;11.30;59.00
66928;DHT22;59882;45.624;11.698;2023-04-03T04:24:34;11.30;59.20
66928;DHT22;59882;45.624;11.698;2023-04-03T04:27:00;11.20;59.60
66928;DHT22;59882;45.624;11.698;2023-04-03T04:29:25;11.10;60.10
66928;DHT22;59882;45.624;11.698;2023-04-03T04:31:51;11.00;59.60
66928;DHT22;59882;45.624;11.698;2023-04-03T04:34:16;11.00;60.30
66928;DHT22;59882;45.624;11.698;2023-04-03T04:36:42;10.90;60.40
66928;DHT22;59882;45.624;11.698;2023-04-03T04:39:08;10.90;60.60
66928;DHT22;59882;45.624;11.698;2023-04-03T04:41:33;10.90;60.50
66928;DHT22;59882;45.624;11.698;2023-04-03T04:43:59;10.90;60.90
66928;DHT22;59882;45.624;11.698;2023-04-03T04:46:26;10.80;60.80
66928;DHT22;59882;45.624;11.698;2023-04-03T04:48:52;10.80;60.90
66928;DHT22;59882;45.624;11.698;2023-04-03T04:51:17;10.80;60.40
66928;DHT22;59882;45.624;11.698;2023-04-03T04:53:43;10.80;60.90
66928;DHT22;59882;45.624;11.698;2023-04-03T04:56:09;10.80;60.80
66928;DHT22;59882;45.624;11.698;2023-04-03T04:58:35;10.80;60.90
66928;DHT22;59882;45.624;11.698;2023-04-03T05:01:06;10.70;61.30
66928;DHT22;59882;45.624;11.698;2023-04-03T05:03:33;10.70;61.00
66928;DHT22;59882;45.624;11.698;2023-04-03T05:05:59;10.70;61.00
66928;DHT22;59882;45.624;11.698;2023-04-03T05:08:24;10.70;61.70
66928;DHT22;59882;45.624;11.698;2023-04-03T05:10:50;10.70;62.30
66928;DHT22;59882;45.624;11.698;2023-04-03T05:13:16;10.70;62.20
66928;DHT22;59882;45.624;11.698;2023-04-03T05:15:42;10.60;61.80
66928;DHT22;59882;45.624;11.698;2023-04-03T05:18:07;10.60;61.80
66928;DHT22;59882;45.624;11.698;2023-04-03T05:20:33;10.60;62.80
66928;DHT22;59882;45.624;11.698;2023-04-03T05:23:00;10.60;62.70
66928;DHT22;59882;45.624;11.698;2023-04-03T05:25:25;10.60;62.80
66928;DHT22;59882;45.624;11.698;2023-04-03T05:27:51;10.60;62.30
66928;DHT22;59882;45.624;11.698;2023-04-03T05:30:17;10.60;62.90
66928;DHT22;59882;45.624;11.698;2023-04-03T05:32:43;10.60;63.20
66928;DHT22;59882;45.624;11.698;2023-04-03T05:35:09;10.60;63.50
66928;DHT22;59882;45.624;11.698;2023-04-03T05:37:35;10.60;63.60
66928;DHT22;59882;45.624;11.698;2023-04-03T05:40:01;10.60;63.10
66928;DHT22;59882;45.624;11.698;2023-04-03T05:42:26;10.60;63.20
66928;DHT22;59882;45.624;11.698;2023-04-03T05:44:52;10.70;63.00
66928;DHT22;59882;45.624;11.698;2023-04-03T05:47:18;10.80;63.00
66928;DHT22;59882;45.624;11.698;2023-04-03T05:49:44;10.90;64.00
66928;DHT22;59882;45.624;11.698;2023-04-03T05:52:30;11.10;64.30
66928;DHT22;59882;45.624;11.698;2023-04-03T05:54:58;11.20;65.50
66928;DHT22;59882;45.624;11.698;2023-04-03T05:57:23;11.30;66.20
66928;DHT22;59882;45.624;11.698;2023-04-03T05:59:49;11.40;65.80
66928;DHT22;59882;45.624;11.698;2023-04-03T06:02:22;11.50;65.50
66928;DHT22;59882;45.624;11.698;2023-04-03T06:04:48;11.60;65.40
66928;DHT22;59882;45.624;11.698;2023-04-03T06:07:19;11.60;65.00
66928;DHT22;59882;45.624;11.698;2023-04-03T06:09:47;11.80;64.10
66928;DHT22;59882;45.624;11.698;2023-04-03T06:12:13;11.80;64.30
66928;DHT22;59882;45.624;11.698;2023-04-03T06:14:39;11.90;64.40
66928;DHT22;59882;45.624;11.698;2023-04-03T06:17:05;12.00;64.40
66928;DHT22;59882;45.624;11.698;2023-04-03T06:19:31;12.10;64.20
66928;DHT22;59882;45.624;11.698;2023-04-03T06:21:57;12.10;64.10
66928;DHT22;59882;45.624;11.698;2023-04-03T06:24:22;12.20;64.10
66928;DHT22;59882;45.624;11.698;2023-04-03T06:26:50;12.30;63.80
66928;DHT22;59882;45.624;11.698;2023-04-03T06:29:16;12.30;63.60
66928;DHT22;59882;45.624;11.698;2023-04-03T06:31:42;12.40;63.50
66928;DHT22;59882;45.624;11.698;2023-04-03T06:34:08;12.40;63.50
66928;DHT22;59882;45.624;11.698;2023-04-03T06:36:34;12.50;63.10
66928;DHT22;59882;45.624;11.698;2023-04-03T06:39:00;12.50;63.10
66928;DHT22;59882;45.624;11.698;2023-04-03T06:41:26;12.60;62.80
66928;DHT22;59882;45.624;11.698;2023-04-03T06:43:52;12.80;62.70
66928;DHT22;59882;45.624;11.698;2023-04-03T06:46:20;12.80;62.90
66928;DHT22;59882;45.624;11.698;2023-04-03T06:48:46;12.90;62.60
66928;DHT22;59882;45.624;11.698;2023-04-03T06:51:20;13.10;62.10
66928;DHT22;59882;45.624;11.698;2023-04-03T06:53:47;13.20;61.80
66928;DHT22;59882;45.624;11.698;2023-04-03T06:56:13;13.30;61.70
66928;DHT22;59882;45.624;11.698;2023-04-03T06:58:40;13.30;61.60
66928;DHT22;59882;45.624;11.698;2023-04-03T07:01:06;13.40;61.30
66928;DHT22;59882;45.624;11.698;2023-04-03T07:03:31;13.40;61.00
66928;DHT22;59882;45.624;11.698;2023-04-03T07:05:57;13.40;61.00
66928;DHT22;59882;45.624;11.698;2023-04-03T07:08:22;13.50;60.90
66928;DHT22;59882;45.624;11.698;2023-04-03T07:10:49;13.60;60.80
66928;DHT22;59882;45.624;11.698;2023-04-03T07:13:15;13.60;60.80
66928;DHT22;59882;45.624;11.698;2023-04-03T07:15:41;13.60;60.80
66928;DHT22;59882;45.624;11.698;2023-04-03T07:18:06;13.60;60.90
66928;DHT22;59882;45.624;11.698;2023-04-03T07:20:33;13.50;60.70
66928;DHT22;59882;45.624;11.698;2023-04-03T07:22:58;13.50;60.80
66928;DHT22;59882;45.624;11.698;2023-04-03T07:25:25;13.60;60.90
66928;DHT22;59882;45.624;11.698;2023-04-03T07:27:50;13.60;61.20
66928;DHT22;59882;45.624;11.698;2023-04-03T07:30:16;13.60;61.00
66928;DHT22;59882;45.624;11.698;2023-04-03T07:32:41;13.70;60.80
66928;DHT22;59882;45.624;11.698;2023-04-03T07:35:07;13.70;60.80
66928;DHT22;59882;45.624;11.698;2023-04-03T07:37:33;13.80;60.90
66928;DHT22;59882;45.624;11.698;2023-04-03T07:39:59;13.80;61.30
66928;DHT22;59882;45.624;11.698;2023-04-03T07:42:25;13.90;60.80
66928;DHT22;59882;45.624;11.698;2023-04-03T07:44:53;13.90;60.60
66928;DHT22;59882;45.624;11.698;2023-04-03T07:47:19;13.90;60.30
66928;DHT22;59882;45.624;11.698;2023-04-03T07:49:45;13.90;60.50
66928;DHT22;59882;45.624;11.698;2023-04-03T07:52:11;14.00;60.20
66928;DHT22;59882;45.624;11.698;2023-04-03T07:54:37;14.10;60.20
66928;DHT22;59882;45.624;11.698;2023-04-03T07:57:03;14.20;59.60
66928;DHT22;59882;45.624;11.698;2023-04-03T07:59:29;14.20;59.50
66928;DHT22;59882;45.624;11.698;2023-04-03T08:01:55;14.30;59.30
66928;DHT22;59882;45.624;11.698;2023-04-03T08:04:20;14.30;58.50
66928;DHT22;59882;45.624;11.698;2023-04-03T08:06:46;14.40;57.10
66928;DHT22;59882;45.624;11.698;2023-04-03T08:09:12;14.40;57.30
66928;DHT22;59882;45.624;11.698;2023-04-03T08:11:39;14.40;56.70
66928;DHT22;59882;45.624;11.698;2023-04-03T08:14:05;14.40;56.60
66928;DHT22;59882;45.624;11.698;2023-04-03T08:16:30;14.40;57.10
66928;DHT22;59882;45.624;11.698;2023-04-03T08:18:56;14.40;56.50
66928;DHT22;59882;45.624;11.698;2023-04-03T08:21:22;14.40;54.70
66928;DHT22;59882;45.624;11.698;2023-04-03T08:23:49;14.40;55.70
66928;DHT22;59882;45.624;11.698;2023-04-03T08:26:20;14.50;55.20
66928;DHT22;59882;45.624;11.698;2023-04-03T08:28:47;14.50;54.90
66928;DHT22;59882;45.624;11.698;2023-04-03T08:31:15;14.60;55.20
66928;DHT22;59882;45.624;11.698;2023-04-03T08:33:42;14.60;54.80
66928;DHT22;59882;45.624;11.698;2023-04-03T08:36:17;14.60;54.30
66928;DHT22;59882;45.624;11.698;2023-04-03T08:38:44;14.50;55.10
66928;DHT22;59882;45.624;11.698;2023-04-03T08:52:11;14.90;54.30
66928;DHT22;59882;45.624;11.698;2023-04-03T08:54:52;15.00;54.30
66928;DHT22;59882;45.624;11.698;2023-04-03T08:57:55;15.00;53.50
66928;DHT22;59882;45.624;11.698;2023-04-03T09:00:26;15.10;54.00
66928;DHT22;59882;45.624;11.698;2023-04-03T09:02:56;15.20;53.40
66928;DHT22;59882;45.624;11.698;2023-04-03T09:05:41;15.20;52.70
66928;DHT22;59882;45.624;11.698;2023-04-03T09:08:21;15.20;53.10
66928;DHT22;59882;45.624;11.698;2023-04-03T09:10:49;15.20;53.60
66928;DHT22;59882;45.624;11.698;2023-04-03T09:13:21;15.30;53.50
66928;DHT22;59882;45.624;11.698;2023-04-03T09:15:48;15.30;53.70
66928;DHT22;59882;45.624;11.698;2023-04-03T09:18:20;15.40;53.40
66928;DHT22;59882;45.624;11.698;2023-04-03T09:21:20;15.40;53.40
66928;DHT22;59882;45.624;11.698;2023-04-03T09:23:51;15.60;53.10
66928;DHT22;59882;45.624;11.698;2023-04-03T09:26:28;15.70;51.50
66928;DHT22;59882;45.624;11.698;2023-04-03T09:28:57;15.60;51.70
66928;DHT22;59882;45.624;11.698;2023-04-03T09:31:31;15.70;52.30
66928;DHT22;59882;45.624;11.698;2023-04-03T09:34:04;15.80;51.20
66928;DHT22;59882;45.624;11.698;2023-04-03T09:36:51;15.80;51.60
66928;DHT22;59882;45.624;11.698;2023-04-03T09:39:19;15.90;51.50
66928;DHT22;59882;45.624;11.698;2023-04-03T09:41:59;15.90;50.70
66928;DHT22;59882;45.624;11.698;2023-04-03T09:44:31;16.00;51.00
66928;DHT22;59882;45.624;11.698;2023-04-03T09:46:58;16.00;51.10
66928;DHT22;59882;45.624;11.698;2023-04-03T09:49:24;16.10;50.20
66928;DHT22;59882;45.624;11.698;2023-04-03T09:51:50;16.20;49.20
66928;DHT22;59882;45.624;11.698;2023-04-03T09:54:32;16.20;49.30
66928;DHT22;59882;45.624;11.698;2023-04-03T09:57:10;16.10;49.40
66928;DHT22;59882;45.624;11.698;2023-04-03T09:59:41;16.10;50.10
66928;DHT22;59882;45.624;11.698;2023-04-03T10:04:58;16.30;50.70
66928;DHT22;59882;45.624;11.698;2023-04-03T10:07:35;16.40;49.80
66928;DHT22;59882;45.624;11.698;2023-04-03T10:10:19;16.40;49.20
66928;DHT22;59882;45.624;11.698;2023-04-03T10:12:46;16.40;47.60
66928;DHT22;59882;45.624;11.698;2023-04-03T10:15:16;16.40;48.70
66928;DHT22;59882;45.624;11.698;2023-04-03T10:18:00;16.30;48.10
66928;DHT22;59882;45.624;11.698;2023-04-03T10:20:40;16.30;48.90
66928;DHT22;59882;45.624;11.698;2023-04-03T10:28:23;16.40;48.70
66928;DHT22;59882;45.624;11.698;2023-04-03T10:34:14;16.40;48.80
66928;DHT22;59882;45.624;11.698;2023-04-03T10:37:25;16.50;47.90
66928;DHT22;59882;45.624;11.698;2023-04-03T10:40:05;16.60;47.10
66928;DHT22;59882;45.624;11.698;2023-04-03T10:42:46;16.70;45.80
66928;DHT22;59882;45.624;11.698;2023-04-03T10:45:29;16.70;46.70
66928;DHT22;59882;45.624;11.698;2023-04-03T10:48:07;16.70;45.20
66928;DHT22;59882;45.624;11.698;2023-04-03T10:51:00;16.70;45.90
66928;DHT22;59882;45.624;11.698;2023-04-03T10:59:27;17.00;45.50
66928;DHT22;59882;45.624;11.698;2023-04-03T11:02:00;17.10;45.10
66928;DHT22;59882;45.624;11.698;2023-04-03T11:04:30;17.10;45.60
66928;DHT22;59882;45.624;11.698;2023-04-03T11:07:18;17.20;45.10
66928;DHT22;59882;45.624;11.698;2023-04-03T11:09:50;17.20;44.80
66928;DHT22;59882;45.624;11.698;2023-04-03T11:14:43;17.20;44.90
66928;DHT22;59882;45.624;11.698;2023-04-03T11:17:33;17.20;44.10
66928;DHT22;59882;45.624;11.698;2023-04-03T11:22:45;17.20;44.70
66928;DHT22;59882;45.624;11.698;2023-04-03T11:28:05;17.30;45.10
66928;DHT22;59882;45.624;11.698;2023-04-03T11:30:54;17.20;44.00
66928;DHT22;59882;45.624;11.698;2023-04-03T11:33:44;17.20;44.40
66928;DHT22;59882;45.624;11.698;2023-04-03T11:36:22;17.10;44.70
66928;DHT22;59882;45.624;11.698;2023-04-03T11:38:55;17.20;44.00
66928;DHT22;59882;45.624;11.698;2023-04-03T11:41:30;17.20;44.30
66928;DHT22;59882;45.624;11.698;2023-04-03T11:44:03;17.30;43.20
66928;DHT22;59882;45.624;11.698;2023-04-03T11:46:49;17.30;44.50
66928;DHT22;59882;45.624;11.698;2023-04-03T11:58:12;17.40;42.80
66928;DHT22;59882;45.624;11.698;2023-04-03T12:08:45;18.00;44.40
66928;DHT22;59882;45.624;11.698;2023-04-03T12:16:28;18.40;43.40
66928;DHT22;59882;45.624;11.698;2023-04-03T12:27:03;18.50;43.10
66928;DHT22;59882;45.624;11.698;2023-04-03T12:37:56;18.60;41.00
66928;DHT22;59882;45.624;11.698;2023-04-03T12:48:46;22.80;33.40
66928;DHT22;59882;45.624;11.698;2023-04-03T12:51:19;23.40;34.00
66928;DHT22;59882;45.624;11.698;2023-04-03T12:53:46;23.40;34.70
66928;DHT22;59882;45.624;11.698;2023-04-03T12:56:27;23.50;32.20
66928;DHT22;59882;45.624;11.698;2023-04-03T12:58:54;24.00;33.00
66928;DHT22;59882;45.624;11.698;2023-04-03T13:01:26;24.50;32.70
66928;DHT22;59882;45.624;11.698;2023-04-03T13:03:55;25.80;30.80
66928;DHT22;59882;45.624;11.698;2023-04-03T13:06:50;27.30;28.80
66928;DHT22;59882;45.624;11.698;2023-04-03T13:11:46;29.10;26.10
66928;DHT22;59882;45.624;11.698;2023-04-03T13:14:21;29.50;25.70
66928;DHT22;59882;45.624;11.698;2023-04-03T13:16:59;30.00;26.10
66928;DHT22;59882;45.624;11.698;2023-04-03T13:19:27;31.10;23.70
66928;DHT22;59882;45.624;11.698;2023-04-03T13:22:06;31.80;23.10
66928;DHT22;59882;45.624;11.698;2023-04-03T13:24:36;31.70;22.70
66928;DHT22;59882;45.624;11.698;2023-04-03T13:27:03;31.50;22.50
66928;DHT22;59882;45.624;11.698;2023-04-03T13:29:33;31.60;24.00
66928;DHT22;59882;45.624;11.698;2023-04-03T13:32:00;32.00;21.70
66928;DHT22;59882;45.624;11.698;2023-04-03T13:34:29;32.30;22.00
66928;DHT22;59882;45.624;11.698;2023-04-03T13:37:01;32.00;22.00
66928;DHT22;59882;45.624;11.698;2023-04-03T13:39:39;31.10;21.50
66928;DHT22;59882;45.624;11.698;2023-04-03T13:42:17;30.00;23.70
66928;DHT22;59882;45.624;11.698;2023-04-03T13:44:46;29.00;24.40
66928;DHT22;59882;45.624;11.698;2023-04-03T13:49:59;28.60;24.90
66928;DHT22;59882;45.624;11.698;2023-04-03T13:52:31;29.10;24.30
66928;DHT22;59882;45.624;11.698;2023-04-03T13:55:14;29.90;23.30
66928;DHT22;59882;45.624;11.698;2023-04-03T14:03:31;31.40;22.20
66928;DHT22;59882;45.624;11.698;2023-04-03T14:05:58;31.30;22.40
66928;DHT22;59882;45.624;11.698;2023-04-03T14:08:25;31.40;21.90
66928;DHT22;59882;45.624;11.698;2023-04-03T14:10:51;31.50;21.90
66928;DHT22;59882;45.624;11.698;2023-04-03T14:13:19;31.40;21.90
66928;DHT22;59882;45.624;11.698;2023-04-03T14:15:47;30.80;23.10
66928;DHT22;59882;45.624;11.698;2023-04-03T14:18:18;30.10;23.00
66928;DHT22;59882;45.624;11.698;2023-04-03T14:20:45;29.50;23.30
66928;DHT22;59882;45.624;11.698;2023-04-03T14:23:10;28.70;23.40
66928;DHT22;59882;45.624;11.698;2023-04-03T14:25:37;28.10;23.40
66928;DHT22;59882;45.624;11.698;2023-04-03T14:28:18;27.40;23.50
66928;DHT22;59882;45.624;11.698;2023-04-03T14:30:44;26.40;24.70
66928;DHT22;59882;45.624;11.698;2023-04-03T14:33:14;25.60;25.30
66928;DHT22;59882;45.624;11.698;2023-04-03T14:35:41;24.90;25.90
66928;DHT22;59882;45.624;11.698;2023-04-03T14:38:25;24.30;26.90
66928;DHT22;59882;45.624;11.698;2023-04-03T14:40:52;23.70;27.50
66928;DHT22;59882;45.624;11.698;2023-04-03T14:43:19;23.20;28.80
66928;DHT22;59882;45.624;11.698;2023-04-03T14:45:46;23.00;29.50
66928;DHT22;59882;45.624;11.698;2023-04-03T14:48:19;23.10;29.90
66928;DHT22;59882;45.624;11.698;2023-04-03T14:50:45;23.40;28.10
66928;DHT22;59882;45.624;11.698;2023-04-03T14:53:12;23.40;27.30
66928;DHT22;59882;45.624;11.698;2023-04-03T14:55:41;23.00;27.60
66928;DHT22;59882;45.624;11.698;2023-04-03T14:58:12;22.60;29.00
66928;DHT22;59882;45.624;11.698;2023-04-03T15:00:38;22.20;29.50
66928;DHT22;59882;45.624;11.698;2023-04-03T15:03:04;21.90;29.60
66928;DHT22;59882;45.624;11.698;2023-04-03T15:05:29;21.50;30.00
66928;DHT22;59882;45.624;11.698;2023-04-03T15:07:57;21.20;29.90
66928;DHT22;59882;45.624;11.698;2023-04-03T15:10:24;20.80;30.50
66928;DHT22;59882;45.624;11.698;2023-04-03T15:12:51;20.60;30.60
66928;DHT22;59882;45.624;11.698;2023-04-03T15:15:19;20.20;31.20
66928;DHT22;59882;45.624;11.698;2023-04-03T15:17:46;20.00;31.30
66928;DHT22;59882;45.624;11.698;2023-04-03T15:20:19;19.70;31.50
66928;DHT22;59882;45.624;11.698;2023-04-03T15:22:45;19.40;31.90
66928;DHT22;59882;45.624;11.698;2023-04-03T15:25:11;19.30;32.70
66928;DHT22;59882;45.624;11.698;2023-04-03T15:27:37;19.10;33.20
66928;DHT22;59882;45.624;11.698;2023-04-03T15:30:05;18.90;32.90
66928;DHT22;59882;45.624;11.698;2023-04-03T15:32:31;18.70;33.30
66928;DHT22;59882;45.624;11.698;2023-04-03T15:34:57;18.60;33.60
66928;DHT22;59882;45.624;11.698;2023-04-03T15:37:22;18.40;33.60
66928;DHT22;59882;45.624;11.698;2023-04-03T15:39:48;18.40;33.70
66928;DHT22;59882;45.624;11.698;2023-04-03T15:42:14;18.10;34.00
66928;DHT22;59882;45.624;11.698;2023-04-03T15:44:39;18.00;34.70
66928;DHT22;59882;45.624;11.698;2023-04-03T15:47:05;17.90;34.80
66928;DHT22;59882;45.624;11.698;2023-04-03T15:49:32;17.80;34.90
66928;DHT22;59882;45.624;11.698;2023-04-03T15:51:59;17.60;35.30
66928;DHT22;59882;45.624;11.698;2023-04-03T15:54:25;17.50;35.30
66928;DHT22;59882;45.624;11.698;2023-04-03T15:56:51;17.40;35.00
66928;DHT22;59882;45.624;11.698;2023-04-03T15:59:17;17.40;35.10
66928;DHT22;59882;45.624;11.698;2023-04-03T16:01:43;17.40;35.40
66928;DHT22;59882;45.624;11.698;2023-04-03T16:04:09;17.30;35.50
66928;DHT22;59882;45.624;11.698;2023-04-03T16:06:36;17.30;35.70
66928;DHT22;59882;45.624;11.698;2023-04-03T16:09:02;17.30;35.80
66928;DHT22;59882;45.624;11.698;2023-04-03T16:11:28;17.20;35.80
66928;DHT22;59882;45.624;11.698;2023-04-03T16:13:54;17.20;36.20
66928;DHT22;59882;45.624;11.698;2023-04-03T16:16:20;17.20;35.70
66928;DHT22;59882;45.624;11.698;2023-04-03T16:18:46;17.20;35.70
66928;DHT22;59882;45.624;11.698;2023-04-03T16:21:13;17.10;35.80
66928;DHT22;59882;45.624;11.698;2023-04-03T16:23:40;17.00;36.10
66928;DHT22;59882;45.624;11.698;2023-04-03T16:26:06;16.90;36.70
66928;DHT22;59882;45.624;11.698;2023-04-03T16:28:32;16.90;36.70
66928;DHT22;59882;45.624;11.698;2023-04-03T16:30:59;16.90;37.30
66928;DHT22;59882;45.624;11.698;2023-04-03T16:33:26;16.90;36.80
66928;DHT22;59882;45.624;11.698;2023-04-03T16:35:52;16.80;36.60
66928;DHT22;59882;45.624;11.698;2023-04-03T16:38:18;16.70;36.70
66928;DHT22;59882;45.624;11.698;2023-04-03T16:40:45;16.60;36.30
66928;DHT22;59882;45.624;11.698;2023-04-03T16:43:10;16.50;36.30
66928;DHT22;59882;45.624;11.698;2023-04-03T16:45:36;16.40;37.00
66928;DHT22;59882;45.624;11.698;2023-04-03T16:48:02;16.40;36.90
66928;DHT22;59882;45.624;11.698;2023-04-03T16:50:28;16.40;36.90
66928;DHT22;59882;45.624;11.698;2023-04-03T16:52:53;16.30;37.50
66928;DHT22;59882;45.624;11.698;2023-04-03T16:55:19;16.30;37.00
66928;DHT22;59882;45.624;11.698;2023-04-03T16:57:46;16.20;37.00
66928;DHT22;59882;45.624;11.698;2023-04-03T17:00:12;16.20;36.90
66928;DHT22;59882;45.624;11.698;2023-04-03T17:02:39;16.10;36.90
66928;DHT22;59882;45.624;11.698;2023-04-03T17:05:05;16.10;36.80